Terminal Aerodrome Forecast
Issued by NWS Twin Cities, MN

Home | Current Version | Previous Version | Text Only | Print | Product List | Glossary Off
Versions: 1 2 3 4 5 6 7 8 9 10 11 12 13 14 15 16 17 18 19

117
FTUS43 KMPX 221720
TAFEAU
TAF
KEAU 221720Z 2218/2318 03004KT P6SM FEW050
     FM230900 00000KT 3SM BR SCT002
     FM231330 12008KT P6SM BKN035 BKN150=

USA.gov is the U.S. government's official web portal to all federal, state and local government web resources and services.